Meadows Of Dan, Virginia
Current Conditions -  °F | °C
As of 8:15 AM on Monday 22 Dec 2014 (Local Time) from KMWK Reporting Station
Drizzle Drizzle  
Wind Chill:   Ceiling: 700
Heat Index:   Visibility: 3mi
Dew Point:   Wind: 6mph
Humidity: 91%   Direction: 60°ENE
Pressure: 30.17"   Gusts: NA
Location:  36.74°N, 80.39°W
Report Text: KMWK 221315Z AUTO 06005KT 3SM -DZ OVC007 03/01 A3017 RMK AO2 P0001 T00270013
Loading
Personal Weather Stations






























Interactive Weather Map New forecast layout! Learn more

10-Day Weather Forecast

Advertisements
Track Severe Weather on mobile